sensor_id;sensor_type;location;lat;lon;timestamp;pressure;altitude;pressure_sealevel;temperature;humidity
6030;BME280;3043;42.682;23.376;2022-07-15T00:01:53;95041.94;;;18.98;100.00
6030;BME280;3043;42.682;23.376;2022-07-15T00:04:19;95042.28;;;18.92;100.00
6030;BME280;3043;42.682;23.376;2022-07-15T00:06:44;95044.91;;;18.92;100.00
6030;BME280;3043;42.682;23.376;2022-07-15T00:09:10;95042.47;;;18.89;100.00
6030;BME280;3043;42.682;23.376;2022-07-15T00:11:35;95042.97;;;18.80;100.00
6030;BME280;3043;42.682;23.376;2022-07-15T00:14:01;95050.56;;;18.85;100.00
6030;BME280;3043;42.682;23.376;2022-07-15T00:16:26;95049.72;;;18.84;100.00
6030;BME280;3043;42.682;23.376;2022-07-15T00:18:52;95051.91;;;18.76;100.00
6030;BME280;3043;42.682;23.376;2022-07-15T00:21:17;95048.63;;;18.73;100.00
6030;BME280;3043;42.682;23.376;2022-07-15T00:23:42;95040.50;;;18.77;100.00
6030;BME280;3043;42.682;23.376;2022-07-15T00:26:08;95045.84;;;18.76;100.00
6030;BME280;3043;42.682;23.376;2022-07-15T00:28:33;95046.00;;;18.73;100.00
6030;BME280;3043;42.682;23.376;2022-07-15T00:30:59;95053.78;;;18.74;100.00
6030;BME280;3043;42.682;23.376;2022-07-15T00:33:24;95054.97;;;18.84;100.00
6030;BME280;3043;42.682;23.376;2022-07-15T00:35:50;95055.91;;;18.83;100.00
6030;BME280;3043;42.682;23.376;2022-07-15T00:38:15;95051.19;;;18.74;100.00
6030;BME280;3043;42.682;23.376;2022-07-15T00:40:42;95045.00;;;18.75;100.00
6030;BME280;3043;42.682;23.376;2022-07-15T00:43:08;95050.41;;;18.72;100.00
6030;BME280;3043;42.682;23.376;2022-07-15T00:45:34;95045.00;;;18.75;100.00
6030;BME280;3043;42.682;23.376;2022-07-15T00:47:59;95046.00;;;18.57;100.00
6030;BME280;3043;42.682;23.376;2022-07-15T00:50:27;95040.72;;;18.42;100.00
6030;BME280;3043;42.682;23.376;2022-07-15T00:52:55;95039.94;;;18.24;100.00
6030;BME280;3043;42.682;23.376;2022-07-15T00:55:22;95041.00;;;18.20;100.00
6030;BME280;3043;42.682;23.376;2022-07-15T00:57:49;95036.81;;;18.33;100.00
6030;BME280;3043;42.682;23.376;2022-07-15T01:00:15;95031.41;;;18.36;100.00
6030;BME280;3043;42.682;23.376;2022-07-15T01:02:42;95029.22;;;18.44;100.00
6030;BME280;3043;42.682;23.376;2022-07-15T01:05:15;95029.41;;;18.41;100.00
6030;BME280;3043;42.682;23.376;2022-07-15T01:07:41;95020.88;;;18.38;100.00
6030;BME280;3043;42.682;23.376;2022-07-15T01:10:06;95026.16;;;18.36;100.00
6030;BME280;3043;42.682;23.376;2022-07-15T01:12:33;95018.47;;;18.33;100.00
6030;BME280;3043;42.682;23.376;2022-07-15T01:14:59;95024.94;;;18.26;100.00
6030;BME280;3043;42.682;23.376;2022-07-15T01:17:25;95030.34;;;18.23;100.00
6030;BME280;3043;42.682;23.376;2022-07-15T01:19:50;95032.22;;;18.21;100.00
6030;BME280;3043;42.682;23.376;2022-07-15T01:22:16;95029.53;;;18.23;100.00
6030;BME280;3043;42.682;23.376;2022-07-15T01:24:41;95029.53;;;18.23;100.00
6030;BME280;3043;42.682;23.376;2022-07-15T01:27:07;95022.41;;;18.25;100.00
6030;BME280;3043;42.682;23.376;2022-07-15T01:29:32;95019.47;;;18.15;100.00
6030;BME280;3043;42.682;23.376;2022-07-15T01:31:58;95015.13;;;18.14;100.00
6030;BME280;3043;42.682;23.376;2022-07-15T01:34:23;95009.31;;;18.09;100.00
6030;BME280;3043;42.682;23.376;2022-07-15T01:36:49;95014.59;;;17.92;100.00
6030;BME280;3043;42.682;23.376;2022-07-15T01:39:14;95006.66;;;17.94;100.00
6030;BME280;3043;42.682;23.376;2022-07-15T01:41:39;95018.09;;;17.91;100.00
6030;BME280;3043;42.682;23.376;2022-07-15T01:44:05;95015.81;;;17.85;100.00
6030;BME280;3043;42.682;23.376;2022-07-15T01:46:30;95015.38;;;17.77;100.00
6030;BME280;3043;42.682;23.376;2022-07-15T01:48:57;95011.91;;;17.77;100.00
6030;BME280;3043;42.682;23.376;2022-07-15T01:51:40;95019.06;;;17.73;100.00
6030;BME280;3043;42.682;23.376;2022-07-15T01:54:06;95017.00;;;17.62;100.00
6030;BME280;3043;42.682;23.376;2022-07-15T01:56:31;95019.03;;;17.57;100.00
6030;BME280;3043;42.682;23.376;2022-07-15T01:58:57;95011.56;;;17.50;100.00
6030;BME280;3043;42.682;23.376;2022-07-15T02:01:22;95020.94;;;17.54;100.00
6030;BME280;3043;42.682;23.376;2022-07-15T02:03:48;95025.09;;;17.58;100.00
6030;BME280;3043;42.682;23.376;2022-07-15T02:06:13;95019.22;;;17.36;100.00
6030;BME280;3043;42.682;23.376;2022-07-15T02:08:39;95025.00;;;17.25;100.00
6030;BME280;3043;42.682;23.376;2022-07-15T02:11:05;95022.00;;;17.16;100.00
6030;BME280;3043;42.682;23.376;2022-07-15T02:13:31;95028.75;;;17.20;100.00
6030;BME280;3043;42.682;23.376;2022-07-15T02:15:56;95028.28;;;16.95;100.00
6030;BME280;3043;42.682;23.376;2022-07-15T02:18:22;95024.50;;;17.00;100.00
6030;BME280;3043;42.682;23.376;2022-07-15T02:20:47;95022.41;;;16.90;100.00
6030;BME280;3043;42.682;23.376;2022-07-15T02:23:13;95028.41;;;16.92;100.00
6030;BME280;3043;42.682;23.376;2022-07-15T02:25:38;95022.88;;;16.98;100.00
6030;BME280;3043;42.682;23.376;2022-07-15T02:28:05;95017.66;;;16.98;100.00
6030;BME280;3043;42.682;23.376;2022-07-15T02:30:42;95025.84;;;17.09;100.00
6030;BME280;3043;42.682;23.376;2022-07-15T02:33:09;95030.91;;;17.12;100.00
6030;BME280;3043;42.682;23.376;2022-07-15T02:35:34;95034.59;;;17.08;100.00
6030;BME280;3043;42.682;23.376;2022-07-15T02:38:00;95026.13;;;17.03;100.00
6030;BME280;3043;42.682;23.376;2022-07-15T02:40:26;95034.06;;;17.01;100.00
6030;BME280;3043;42.682;23.376;2022-07-15T02:42:54;95026.56;;;16.94;100.00
6030;BME280;3043;42.682;23.376;2022-07-15T02:45:22;95026.69;;;16.91;100.00
6030;BME280;3043;42.682;23.376;2022-07-15T02:47:48;95029.47;;;16.88;100.00
6030;BME280;3043;42.682;23.376;2022-07-15T02:50:15;95025.31;;;16.84;100.00
6030;BME280;3043;42.682;23.376;2022-07-15T02:52:42;95024.81;;;16.76;100.00
6030;BME280;3043;42.682;23.376;2022-07-15T02:55:09;95030.97;;;16.75;100.00
6030;BME280;3043;42.682;23.376;2022-07-15T02:57:35;95022.44;;;16.71;100.00
6030;BME280;3043;42.682;23.376;2022-07-15T03:00:00;95018.84;;;16.74;100.00
6030;BME280;3043;42.682;23.376;2022-07-15T03:02:26;95022.06;;;16.79;100.00
6030;BME280;3043;42.682;23.376;2022-07-15T03:04:52;95020.38;;;16.78;100.00
6030;BME280;3043;42.682;23.376;2022-07-15T03:07:18;95023.44;;;16.69;100.00
6030;BME280;3043;42.682;23.376;2022-07-15T03:09:43;95016.69;;;16.82;100.00
6030;BME280;3043;42.682;23.376;2022-07-15T03:12:09;95018.25;;;16.86;100.00
6030;BME280;3043;42.682;23.376;2022-07-15T03:14:34;95017.00;;;16.76;100.00
6030;BME280;3043;42.682;23.376;2022-07-15T03:17:00;95017.53;;;16.82;100.00
6030;BME280;3043;42.682;23.376;2022-07-15T03:19:25;95013.56;;;16.92;100.00
6030;BME280;3043;42.682;23.376;2022-07-15T03:21:50;95015.69;;;17.03;100.00
6030;BME280;3043;42.682;23.376;2022-07-15T03:24:16;95021.03;;;16.83;100.00
6030;BME280;3043;42.682;23.376;2022-07-15T03:26:42;95014.13;;;16.99;100.00
6030;BME280;3043;42.682;23.376;2022-07-15T03:29:08;95019.59;;;17.11;100.00
6030;BME280;3043;42.682;23.376;2022-07-15T03:31:34;95013.72;;;17.59;100.00
6030;BME280;3043;42.682;23.376;2022-07-15T03:34:00;95010.78;;;18.30;100.00
6030;BME280;3043;42.682;23.376;2022-07-15T03:36:26;95009.59;;;18.98;100.00
6030;BME280;3043;42.682;23.376;2022-07-15T03:38:51;95001.69;;;19.59;100.00
6030;BME280;3043;42.682;23.376;2022-07-15T03:41:20;95007.19;;;20.12;100.00
6030;BME280;3043;42.682;23.376;2022-07-15T03:43:46;95011.31;;;20.58;100.00
6030;BME280;3043;42.682;23.376;2022-07-15T03:46:12;95010.19;;;21.29;100.00
6030;BME280;3043;42.682;23.376;2022-07-15T03:48:39;95014.53;;;21.82;100.00
6030;BME280;3043;42.682;23.376;2022-07-15T03:51:04;95021.31;;;21.98;99.79
6030;BME280;3043;42.682;23.376;2022-07-15T03:53:30;95019.63;;;22.47;95.35
6030;BME280;3043;42.682;23.376;2022-07-15T03:55:55;95031.31;;;23.05;89.47
6030;BME280;3043;42.682;23.376;2022-07-15T03:58:21;95026.63;;;23.68;87.43
6030;BME280;3043;42.682;23.376;2022-07-15T04:00:46;95017.78;;;24.25;79.29
6030;BME280;3043;42.682;23.376;2022-07-15T04:03:12;95019.63;;;24.69;76.42
6030;BME280;3043;42.682;23.376;2022-07-15T04:05:37;95016.75;;;24.94;74.65
6030;BME280;3043;42.682;23.376;2022-07-15T04:08:04;95019.91;;;25.31;72.49
6030;BME280;3043;42.682;23.376;2022-07-15T04:10:29;95022.13;;;25.57;71.45
6030;BME280;3043;42.682;23.376;2022-07-15T04:12:56;95024.88;;;25.87;68.67
6030;BME280;3043;42.682;23.376;2022-07-15T04:15:21;95023.00;;;26.31;64.88
6030;BME280;3043;42.682;23.376;2022-07-15T04:17:47;95028.03;;;26.84;61.64
6030;BME280;3043;42.682;23.376;2022-07-15T04:20:13;95030.97;;;26.91;60.68
6030;BME280;3043;42.682;23.376;2022-07-15T04:22:42;95028.75;;;27.26;57.83
6030;BME280;3043;42.682;23.376;2022-07-15T04:25:08;95031.03;;;27.59;56.12
6030;BME280;3043;42.682;23.376;2022-07-15T04:27:34;95033.31;;;28.11;53.97
6030;BME280;3043;42.682;23.376;2022-07-15T04:29:59;95028.28;;;28.27;52.62
6030;BME280;3043;42.682;23.376;2022-07-15T04:32:25;95034.13;;;28.21;52.27
6030;BME280;3043;42.682;23.376;2022-07-15T04:34:52;95041.72;;;27.97;53.46
6030;BME280;3043;42.682;23.376;2022-07-15T04:37:17;95038.16;;;28.44;52.91
6030;BME280;3043;42.682;23.376;2022-07-15T04:39:43;95050.00;;;28.88;51.21
6030;BME280;3043;42.682;23.376;2022-07-15T04:42:08;95046.09;;;29.19;48.22
6030;BME280;3043;42.682;23.376;2022-07-15T04:44:34;95039.13;;;29.35;48.44
6030;BME280;3043;42.682;23.376;2022-07-15T04:46:59;95038.06;;;29.73;47.59
6030;BME280;3043;42.682;23.376;2022-07-15T04:49:28;95047.31;;;30.14;46.02
6030;BME280;3043;42.682;23.376;2022-07-15T04:52:12;95046.91;;;30.69;43.85
6030;BME280;3043;42.682;23.376;2022-07-15T04:54:37;95044.66;;;30.57;43.72
6030;BME280;3043;42.682;23.376;2022-07-15T04:57:03;95043.06;;;30.72;43.50
6030;BME280;3043;42.682;23.376;2022-07-15T04:59:29;95041.28;;;29.77;45.59
6030;BME280;3043;42.682;23.376;2022-07-15T05:01:55;95041.56;;;30.09;44.15
6030;BME280;3043;42.682;23.376;2022-07-15T05:04:20;95039.31;;;30.57;43.12
6030;BME280;3043;42.682;23.376;2022-07-15T05:06:46;95044.41;;;29.90;43.68
6030;BME280;3043;42.682;23.376;2022-07-15T05:09:11;95042.44;;;30.52;42.90
6030;BME280;3043;42.682;23.376;2022-07-15T05:11:37;95043.84;;;30.04;43.21
6030;BME280;3043;42.682;23.376;2022-07-15T05:14:02;95041.13;;;30.13;43.96
6030;BME280;3043;42.682;23.376;2022-07-15T05:16:28;95046.72;;;30.20;44.06
6030;BME280;3043;42.682;23.376;2022-07-15T05:18:53;95044.50;;;30.76;41.98
6030;BME280;3043;42.682;23.376;2022-07-15T05:21:19;95047.63;;;30.97;41.47
6030;BME280;3043;42.682;23.376;2022-07-15T05:23:44;95042.75;;;31.26;41.30
6030;BME280;3043;42.682;23.376;2022-07-15T05:26:09;95042.69;;;31.52;41.08
6030;BME280;3043;42.682;23.376;2022-07-15T05:28:37;95045.75;;;31.65;40.77
6030;BME280;3043;42.682;23.376;2022-07-15T05:31:04;95043.88;;;32.23;39.91
6030;BME280;3043;42.682;23.376;2022-07-15T05:33:30;95044.41;;;32.58;38.19
6030;BME280;3043;42.682;23.376;2022-07-15T05:35:55;95041.00;;;32.97;38.18
6030;BME280;3043;42.682;23.376;2022-07-15T05:38:21;95037.69;;;32.71;38.88
6030;BME280;3043;42.682;23.376;2022-07-15T05:40:46;95037.47;;;33.51;36.42
6030;BME280;3043;42.682;23.376;2022-07-15T05:43:12;95052.88;;;33.02;37.61
6030;BME280;3043;42.682;23.376;2022-07-15T05:45:37;95036.16;;;34.08;34.75
6030;BME280;3043;42.682;23.376;2022-07-15T05:48:03;95040.13;;;33.59;36.63
6030;BME280;3043;42.682;23.376;2022-07-15T05:50:28;95033.38;;;32.37;38.06
6030;BME280;3043;42.682;23.376;2022-07-15T05:52:54;95038.53;;;33.42;36.24
6030;BME280;3043;42.682;23.376;2022-07-15T05:55:19;95039.25;;;33.20;36.73
6030;BME280;3043;42.682;23.376;2022-07-15T05:57:45;95045.84;;;33.56;36.71
6030;BME280;3043;42.682;23.376;2022-07-15T06:00:11;95039.31;;;34.34;34.65
6030;BME280;3043;42.682;23.376;2022-07-15T06:02:37;95037.63;;;32.79;37.19
6030;BME280;3043;42.682;23.376;2022-07-15T06:05:02;95041.09;;;33.66;36.53
6030;BME280;3043;42.682;23.376;2022-07-15T06:07:28;95042.25;;;34.02;35.24
6030;BME280;3043;42.682;23.376;2022-07-15T06:09:53;95039.72;;;34.23;35.95
6030;BME280;3043;42.682;23.376;2022-07-15T06:12:18;95045.06;;;35.78;32.17
6030;BME280;3043;42.682;23.376;2022-07-15T06:14:44;95051.97;;;35.66;32.45
6030;BME280;3043;42.682;23.376;2022-07-15T06:17:09;95041.22;;;34.85;33.86
6030;BME280;3043;42.682;23.376;2022-07-15T06:19:35;95046.41;;;35.82;31.88
6030;BME280;3043;42.682;23.376;2022-07-15T06:22:00;95039.25;;;36.10;32.05
6030;BME280;3043;42.682;23.376;2022-07-15T06:24:26;95042.41;;;35.05;33.42
6030;BME280;3043;42.682;23.376;2022-07-15T06:26:52;95044.34;;;35.11;33.73
6030;BME280;3043;42.682;23.376;2022-07-15T06:29:17;95040.09;;;35.17;32.36
6030;BME280;3043;42.682;23.376;2022-07-15T06:31:43;95046.63;;;35.51;33.05
6030;BME280;3043;42.682;23.376;2022-07-15T06:34:08;95050.78;;;36.40;31.42
6030;BME280;3043;42.682;23.376;2022-07-15T06:36:34;95046.06;;;36.27;32.47
6030;BME280;3043;42.682;23.376;2022-07-15T06:38:59;95044.88;;;36.72;31.44
6030;BME280;3043;42.682;23.376;2022-07-15T06:41:25;95052.69;;;37.43;30.62
6030;BME280;3043;42.682;23.376;2022-07-15T06:43:50;95054.41;;;37.91;29.69
6030;BME280;3043;42.682;23.376;2022-07-15T06:46:16;95044.09;;;38.14;29.17
6030;BME280;3043;42.682;23.376;2022-07-15T06:48:42;95049.56;;;38.53;29.18
6030;BME280;3043;42.682;23.376;2022-07-15T06:51:08;95043.19;;;38.93;27.64
6030;BME280;3043;42.682;23.376;2022-07-15T06:53:33;95041.31;;;38.87;27.76
6030;BME280;3043;42.682;23.376;2022-07-15T06:55:59;95047.13;;;39.24;27.91
6030;BME280;3043;42.682;23.376;2022-07-15T06:58:24;95052.03;;;39.79;27.27
6030;BME280;3043;42.682;23.376;2022-07-15T07:00:50;95038.78;;;38.92;27.66
6030;BME280;3043;42.682;23.376;2022-07-15T07:03:15;95035.84;;;39.53;26.75
6030;BME280;3043;42.682;23.376;2022-07-15T07:05:41;95040.47;;;39.20;27.94
6030;BME280;3043;42.682;23.376;2022-07-15T07:08:06;95043.34;;;39.51;26.73
6030;BME280;3043;42.682;23.376;2022-07-15T07:10:32;95043.78;;;39.41;27.27
6030;BME280;3043;42.682;23.376;2022-07-15T07:12:58;95045.88;;;39.26;26.92
6030;BME280;3043;42.682;23.376;2022-07-15T07:15:24;95037.56;;;39.41;27.32
6030;BME280;3043;42.682;23.376;2022-07-15T07:17:52;95036.63;;;39.73;27.36
6030;BME280;3043;42.682;23.376;2022-07-15T07:20:18;95039.41;;;40.04;27.22
6030;BME280;3043;42.682;23.376;2022-07-15T07:22:44;95039.81;;;40.07;27.30
6030;BME280;3043;42.682;23.376;2022-07-15T07:25:09;95039.50;;;39.78;27.18
6030;BME280;3043;42.682;23.376;2022-07-15T07:27:35;95037.47;;;39.67;27.23
6030;BME280;3043;42.682;23.376;2022-07-15T07:30:00;95035.78;;;40.23;26.12
6030;BME280;3043;42.682;23.376;2022-07-15T07:32:30;95019.06;;;39.82;26.67
6030;BME280;3043;42.682;23.376;2022-07-15T07:34:56;95030.06;;;41.42;24.82
6030;BME280;3043;42.682;23.376;2022-07-15T07:37:22;95033.28;;;41.33;24.34
6030;BME280;3043;42.682;23.376;2022-07-15T07:39:48;95028.72;;;41.09;24.72
6030;BME280;3043;42.682;23.376;2022-07-15T07:42:14;95026.94;;;40.72;25.18
6030;BME280;3043;42.682;23.376;2022-07-15T07:44:39;95031.16;;;40.30;25.06
6030;BME280;3043;42.682;23.376;2022-07-15T07:47:05;95024.06;;;40.60;25.94
6030;BME280;3043;42.682;23.376;2022-07-15T07:49:30;95031.41;;;40.84;24.27
6030;BME280;3043;42.682;23.376;2022-07-15T07:51:56;95035.28;;;39.95;25.76
6030;BME280;3043;42.682;23.376;2022-07-15T07:54:21;95034.63;;;40.43;25.48
6030;BME280;3043;42.682;23.376;2022-07-15T07:56:47;95036.13;;;39.82;25.64
6030;BME280;3043;42.682;23.376;2022-07-15T07:59:12;95030.03;;;40.44;24.89
6030;BME280;3043;42.682;23.376;2022-07-15T08:01:38;95029.19;;;40.99;24.10
6030;BME280;3043;42.682;23.376;2022-07-15T08:04:04;95025.28;;;41.20;23.46
6030;BME280;3043;42.682;23.376;2022-07-15T08:06:29;95032.31;;;41.03;23.34
6030;BME280;3043;42.682;23.376;2022-07-15T08:08:55;95024.91;;;40.67;24.12
6030;BME280;3043;42.682;23.376;2022-07-15T08:11:20;95022.84;;;40.56;23.77
6030;BME280;3043;42.682;23.376;2022-07-15T08:13:46;95022.28;;;40.10;23.59
6030;BME280;3043;42.682;23.376;2022-07-15T08:16:12;95012.81;;;39.81;24.21
6030;BME280;3043;42.682;23.376;2022-07-15T08:18:38;95015.47;;;40.63;23.28
6030;BME280;3043;42.682;23.376;2022-07-15T08:21:04;95008.66;;;40.85;23.36
6030;BME280;3043;42.682;23.376;2022-07-15T08:23:30;95013.13;;;40.04;24.94
6030;BME280;3043;42.682;23.376;2022-07-15T08:25:58;95013.88;;;40.18;24.15
6030;BME280;3043;42.682;23.376;2022-07-15T08:28:24;95013.38;;;40.34;23.86
6030;BME280;3043;42.682;23.376;2022-07-15T08:30:49;95016.00;;;40.78;23.51
6030;BME280;3043;42.682;23.376;2022-07-15T08:33:15;95010.25;;;40.68;24.13
6030;BME280;3043;42.682;23.376;2022-07-15T08:35:41;95013.03;;;40.86;23.93
6030;BME280;3043;42.682;23.376;2022-07-15T08:38:07;95011.19;;;41.05;23.40
6030;BME280;3043;42.682;23.376;2022-07-15T08:40:34;95005.28;;;41.14;23.62
6030;BME280;3043;42.682;23.376;2022-07-15T08:43:00;95000.28;;;41.54;22.89
6030;BME280;3043;42.682;23.376;2022-07-15T08:45:27;95001.78;;;41.68;22.88
6030;BME280;3043;42.682;23.376;2022-07-15T08:47:52;95011.16;;;42.38;22.19
6030;BME280;3043;42.682;23.376;2022-07-15T08:50:19;95000.53;;;42.89;21.76
6030;BME280;3043;42.682;23.376;2022-07-15T08:52:46;95000.44;;;43.41;21.42
6030;BME280;3043;42.682;23.376;2022-07-15T08:55:13;95002.59;;;43.28;21.16
6030;BME280;3043;42.682;23.376;2022-07-15T08:57:45;94995.34;;;42.58;21.60
6030;BME280;3043;42.682;23.376;2022-07-15T09:00:11;94996.63;;;42.14;22.12
6030;BME280;3043;42.682;23.376;2022-07-15T09:02:37;94994.97;;;42.43;22.18
6030;BME280;3043;42.682;23.376;2022-07-15T09:10:40;94987.81;;;41.82;23.24
6030;BME280;3043;42.682;23.376;2022-07-15T09:13:07;94984.94;;;41.41;23.15
6030;BME280;3043;42.682;23.376;2022-07-15T09:15:34;94980.44;;;40.86;23.29
6030;BME280;3043;42.682;23.376;2022-07-15T09:18:28;94980.69;;;41.09;23.31
6030;BME280;3043;42.682;23.376;2022-07-15T09:20:54;94983.59;;;41.08;23.62
6030;BME280;3043;42.682;23.376;2022-07-15T09:23:28;94970.44;;;41.11;23.43
6030;BME280;3043;42.682;23.376;2022-07-15T09:26:34;94975.72;;;41.42;23.66
6030;BME280;3043;42.682;23.376;2022-07-15T09:29:02;94978.44;;;41.60;22.66
6030;BME280;3043;42.682;23.376;2022-07-15T09:31:55;94973.16;;;41.47;22.46
6030;BME280;3043;42.682;23.376;2022-07-15T09:34:58;94972.75;;;41.80;22.02
6030;BME280;3043;42.682;23.376;2022-07-15T09:37:24;94974.56;;;42.34;20.51
6030;BME280;3043;42.682;23.376;2022-07-15T09:39:54;94980.69;;;41.09;22.10
6030;BME280;3043;42.682;23.376;2022-07-15T09:42:21;94971.19;;;41.72;21.48
6030;BME280;3043;42.682;23.376;2022-07-15T09:44:47;94969.38;;;41.48;21.66
6030;BME280;3043;42.682;23.376;2022-07-15T09:47:17;94969.81;;;41.45;21.72
6030;BME280;3043;42.682;23.376;2022-07-15T09:49:44;94966.63;;;41.84;22.84
6030;BME280;3043;42.682;23.376;2022-07-15T09:52:12;94969.78;;;42.17;21.83
6030;BME280;3043;42.682;23.376;2022-07-15T09:54:44;94965.63;;;42.56;21.60
6030;BME280;3043;42.682;23.376;2022-07-15T09:57:17;94965.19;;;42.30;21.27
6030;BME280;3043;42.682;23.376;2022-07-15T09:59:47;94965.75;;;41.90;23.00
6030;BME280;3043;42.682;23.376;2022-07-15T10:02:13;94961.72;;;42.22;22.17
6030;BME280;3043;42.682;23.376;2022-07-15T10:04:39;94955.69;;;42.62;20.85
6030;BME280;3043;42.682;23.376;2022-07-15T10:07:05;94960.72;;;41.87;20.77
6030;BME280;3043;42.682;23.376;2022-07-15T10:09:36;94956.00;;;41.11;22.04
6030;BME280;3043;42.682;23.376;2022-07-15T10:12:15;94953.06;;;41.48;22.74
6030;BME280;3043;42.682;23.376;2022-07-15T10:23:45;94959.25;;;41.37;20.87
6030;BME280;3043;42.682;23.376;2022-07-15T10:26:21;94954.72;;;41.31;20.57
6030;BME280;3043;42.682;23.376;2022-07-15T10:28:52;94953.16;;;40.99;20.85
6030;BME280;3043;42.682;23.376;2022-07-15T10:31:30;94949.22;;;40.95;20.96
6030;BME280;3043;42.682;23.376;2022-07-15T10:39:04;94940.88;;;39.22;22.69
6030;BME280;3043;42.682;23.376;2022-07-15T10:41:51;94937.53;;;39.26;22.61
6030;BME280;3043;42.682;23.376;2022-07-15T10:44:17;94931.38;;;38.73;23.19
6030;BME280;3043;42.682;23.376;2022-07-15T10:46:43;94925.94;;;38.08;23.70
6030;BME280;3043;42.682;23.376;2022-07-15T10:59:09;94918.47;;;38.36;22.85
6030;BME280;3043;42.682;23.376;2022-07-15T11:01:39;94913.88;;;38.04;23.63
6030;BME280;3043;42.682;23.376;2022-07-15T11:04:15;94913.97;;;37.64;23.68
6030;BME280;3043;42.682;23.376;2022-07-15T11:17:24;94905.22;;;35.98;24.07
6030;BME280;3043;42.682;23.376;2022-07-15T11:19:54;94902.59;;;35.83;24.51
6030;BME280;3043;42.682;23.376;2022-07-15T11:22:21;94905.16;;;35.55;24.55
6030;BME280;3043;42.682;23.376;2022-07-15T11:24:47;94902.44;;;35.34;26.58
6030;BME280;3043;42.682;23.376;2022-07-15T11:27:13;94896.31;;;35.40;25.64
6030;BME280;3043;42.682;23.376;2022-07-15T11:29:58;94895.25;;;35.56;25.06
6030;BME280;3043;42.682;23.376;2022-07-15T11:32:28;94897.81;;;35.64;24.64
6030;BME280;3043;42.682;23.376;2022-07-15T11:34:56;94897.72;;;35.36;24.66
6030;BME280;3043;42.682;23.376;2022-07-15T11:37:25;94897.09;;;35.05;24.98
6030;BME280;3043;42.682;23.376;2022-07-15T11:40:06;94890.41;;;34.43;25.49
6030;BME280;3043;42.682;23.376;2022-07-15T11:42:33;94888.38;;;34.08;26.83
6030;BME280;3043;42.682;23.376;2022-07-15T11:45:32;94881.41;;;33.99;27.08
6030;BME280;3043;42.682;23.376;2022-07-15T11:47:57;94886.91;;;33.83;26.27
6030;BME280;3043;42.682;23.376;2022-07-15T11:50:23;94874.31;;;33.61;28.50
6030;BME280;3043;42.682;23.376;2022-07-15T11:52:48;94874.50;;;33.59;27.94
6030;BME280;3043;42.682;23.376;2022-07-15T11:55:16;94871.63;;;33.38;26.57
6030;BME280;3043;42.682;23.376;2022-07-15T11:57:45;94868.41;;;33.43;26.82
6030;BME280;3043;42.682;23.376;2022-07-15T12:00:12;94867.78;;;33.33;27.50
6030;BME280;3043;42.682;23.376;2022-07-15T12:02:38;94879.53;;;33.32;27.49
6030;BME280;3043;42.682;23.376;2022-07-15T12:05:06;94872.84;;;33.28;26.68
6030;BME280;3043;42.682;23.376;2022-07-15T12:07:46;94868.03;;;32.93;27.84
6030;BME280;3043;42.682;23.376;2022-07-15T12:10:13;94862.38;;;32.88;27.98
6030;BME280;3043;42.682;23.376;2022-07-15T12:12:59;94864.34;;;32.86;29.10
6030;BME280;3043;42.682;23.376;2022-07-15T12:15:28;94860.38;;;32.74;28.32
6030;BME280;3043;42.682;23.376;2022-07-15T12:17:54;94858.84;;;32.40;30.07
6030;BME280;3043;42.682;23.376;2022-07-15T12:20:20;94860.69;;;32.24;30.21
6030;BME280;3043;42.682;23.376;2022-07-15T12:23:06;94859.19;;;32.21;29.73
6030;BME280;3043;42.682;23.376;2022-07-15T12:25:32;94855.88;;;32.03;29.71
6030;BME280;3043;42.682;23.376;2022-07-15T12:27:57;94861.28;;;31.87;29.59
6030;BME280;3043;42.682;23.376;2022-07-15T12:30:35;94854.56;;;31.83;29.96
6030;BME280;3043;42.682;23.376;2022-07-15T12:33:22;94854.53;;;31.75;29.83
6030;BME280;3043;42.682;23.376;2022-07-15T12:35:49;94846.84;;;31.56;29.64
6030;BME280;3043;42.682;23.376;2022-07-15T12:38:30;94850.19;;;31.42;30.07
6030;BME280;3043;42.682;23.376;2022-07-15T12:41:06;94853.72;;;31.51;29.88
6030;BME280;3043;42.682;23.376;2022-07-15T12:43:57;94851.53;;;31.54;30.28
6030;BME280;3043;42.682;23.376;2022-07-15T12:46:54;94846.19;;;31.54;31.75
6030;BME280;3043;42.682;23.376;2022-07-15T12:54:43;94840.84;;;31.62;30.25
6030;BME280;3043;42.682;23.376;2022-07-15T12:57:42;94832.31;;;31.51;30.35
6030;BME280;3043;42.682;23.376;2022-07-15T13:02:59;94832.81;;;31.70;30.52
6030;BME280;3043;42.682;23.376;2022-07-15T13:05:25;94837.16;;;31.79;31.04
6030;BME280;3043;42.682;23.376;2022-07-15T13:07:51;94832.81;;;31.86;30.81
6030;BME280;3043;42.682;23.376;2022-07-15T13:10:17;94839.66;;;31.81;31.37
6030;BME280;3043;42.682;23.376;2022-07-15T13:12:43;94845.00;;;31.81;31.04
6030;BME280;3043;42.682;23.376;2022-07-15T13:15:09;94831.47;;;31.90;30.39
6030;BME280;3043;42.682;23.376;2022-07-15T13:17:34;94835.63;;;31.77;30.21
6030;BME280;3043;42.682;23.376;2022-07-15T13:20:04;94835.78;;;31.75;31.61
6030;BME280;3043;42.682;23.376;2022-07-15T13:22:31;94829.78;;;31.65;31.66
6030;BME280;3043;42.682;23.376;2022-07-15T13:24:57;94827.28;;;31.64;31.44
6030;BME280;3043;42.682;23.376;2022-07-15T13:27:24;94829.78;;;31.65;34.29
6030;BME280;3043;42.682;23.376;2022-07-15T13:29:49;94827.78;;;31.51;34.12
6030;BME280;3043;42.682;23.376;2022-07-15T13:32:15;94837.13;;;31.31;32.84
6030;BME280;3043;42.682;23.376;2022-07-15T13:34:40;94833.47;;;31.32;32.42
6030;BME280;3043;42.682;23.376;2022-07-15T13:37:06;94827.06;;;31.25;33.20
6030;BME280;3043;42.682;23.376;2022-07-15T13:39:31;94823.72;;;31.07;33.73
6030;BME280;3043;42.682;23.376;2022-07-15T13:41:56;94834.25;;;31.00;34.09
6030;BME280;3043;42.682;23.376;2022-07-15T13:44:22;94828.38;;;30.97;33.30
6030;BME280;3043;42.682;23.376;2022-07-15T13:46:47;94816.84;;;30.96;33.41
6030;BME280;3043;42.682;23.376;2022-07-15T13:49:13;94826.72;;;30.96;33.05
6030;BME280;3043;42.682;23.376;2022-07-15T13:51:38;94823.38;;;30.94;33.45
6030;BME280;3043;42.682;23.376;2022-07-15T13:54:06;94823.00;;;30.89;33.58
6030;BME280;3043;42.682;23.376;2022-07-15T13:56:32;94825.53;;;30.82;32.87
6030;BME280;3043;42.682;23.376;2022-07-15T13:58:58;94821.31;;;30.80;33.09